• Join FlightAware (Why Join?)
  • Login
  • US Flag 
04:40AM EDT


 

Airport Tracker/Info


-or-


 

Live Flight TrackerFlight Track Log ✈ N960DL ✈ 10-Jun-2013 ✈ KCLT - KATL

Flight Track Log - Related Links

Times and Time Zones

All times are in EDT time to prevent confusion due to time zone crossing. See the N960DL flight status page for this flight to view local times or setup timezone preferences in your user account.

Time Position Orientation Groundspeed Altitude Reporting Facility
EDT Latitude Longitude Course Direction KTS MPH feet Rate Location/Type
10:18AM 35.1911 -80.9508 270° West 165 190 1,600  Level Atlanta Center
10:18AM 35.1411 -80.9503 179° South 209 241 3,100 2,220 Climbing Atlanta Center
10:19AM 35.0922 -80.9953 217° Southwest 246 283 6,000 2,760 Climbing Atlanta Center
10:20AM 35.2610 -81.1825 282° West  Level FlightAware Approximate
10:20AM 35.0942 -81.0789 272° West 257 296 8,800  Level Atlanta Center
10:21AM 35.2319 -81.2978 242° Southwest  Level FlightAware Approximate
10:22AM 35.1799 -81.4070 239° Southwest  Level FlightAware Approximate
10:22AM 35.1153 -81.1797 284° West 286 329 11,300  Level Atlanta Center
10:23AM 35.1333 -81.5173 270° West  Level FlightAware Approximate
10:23AM 35.1342 -81.2706 284° West 305 351 13,200  Level Atlanta Center
10:25AM 35.1203 -81.4919 266° West 332 382 17,600 2,100 Climbing Atlanta Center
10:26AM 35.0933 -81.6044 254° West 337 388 19,500 1,440 Climbing Atlanta Center
10:27AM 35.0664 -81.7244 255° West 362 417 20,500 960 Climbing Atlanta Center
10:28AM 35.0336 -81.8700 255° West 381 438 21,500 1,140 Climbing Atlanta Center
10:29AM 35.0003 -82.0078 254° West 415 478 22,800 1,380 Climbing Atlanta Center
10:30AM 34.9692 -82.1478 255° West 430 495 24,300 2,580 Climbing Atlanta Center
10:31AM 34.9397 -82.2703 254° West 437 503 28,000 1,680 Climbing Atlanta Center
10:32AM 34.9061 -82.4078 253° West 431 496 27,700  Descending Atlanta Center
10:33AM 34.8744 -82.5450 254° West 426 490 28,000 120 Climbing Atlanta Center
10:34AM 34.8344 -82.6722 249° West 415 478 28,000  Level Atlanta Center
10:35AM 34.7647 -82.7872 234° Southwest 414 476 28,000  Level Atlanta Center
10:36AM 34.6947 -82.8944 232° Southwest 414 476 28,000  Level Atlanta Center
10:37AM 34.6164 -83.0139 231° Southwest 414 476 28,000 -720 Level Atlanta Center
10:38AM 34.5483 -83.1233 233° Southwest 414 476 26,600 -1,860 Descending Atlanta Center
10:39AM 34.4783 -83.2300 231° Southwest 414 476 24,300 -2,400 Descending Atlanta Center
10:40AM 34.4122 -83.3314 232° Southwest 408 470 21,800 -2,460 Descending Atlanta Center
10:41AM 34.3500 -83.4325 233° Southwest 391 450 19,400 -2,280 Descending Atlanta Center
10:42AM 34.2858 -83.5283 231° Southwest 378 435 17,300 -2,160 Descending Atlanta Center
10:43AM 34.2000 -83.6667 233° Southwest 331 381 14,100 -2,220 Descending Atlanta TRACON
10:44AM 34.1736 -83.7047 230° Southwest 346 398 12,900 -1,500 Descending Atlanta Center
10:45AM 34.1236 -83.7778 230° Southwest 335 386 11,900 -480 Descending Atlanta Center
10:46AM 34.0800 -83.8481 233° Southwest 290 334 12,000 -480 Climbing Atlanta Center
10:46AM 34.0500 -83.8833 224° Southwest 256 295 11,200 -1,620 Descending Atlanta TRACON
10:47AM 33.9833 -83.9333 212° Southwest 260 299 9,600 -1,140 Descending Atlanta TRACON
10:48AM 33.9167 -83.9667 203° Southwest 260 299 9,000 -720 Descending Atlanta TRACON
10:49AM 33.8500 -83.9833 192° South 265 305 8,200 -720 Descending Atlanta TRACON
10:50AM 33.8256 -83.9839 181° South 260 299 8,000 -420 Descending Atlanta Center
10:51AM 33.7461 -83.9914 184° South 260 299 7,600 -1,080 Descending Atlanta Center
10:52AM 33.6814 -84.0289 206° Southwest 250 288 5,900 -1,020 Descending Atlanta Center
10:53AM 33.6500 -84.1333 250° West 199 229 5,000 -780 Descending Atlanta TRACON
10:54AM 33.6500 -84.1833 270° West 193 222 4,000 -1,140 Descending Atlanta TRACON